sensor_id;sensor_type;location;lat;lon;timestamp;P1;durP1;ratioP1;P2;durP2;ratioP2
77531;SDS011;70100;44.486;0.266;2023-07-24T00:03:55;4.87;;;3.97;;
77531;SDS011;70100;44.486;0.266;2023-07-24T00:14:57;6.40;;;3.77;;
77531;SDS011;70100;44.486;0.266;2023-07-24T00:20:30;5.13;;;3.60;;
77531;SDS011;70100;44.486;0.266;2023-07-24T00:26:03;8.70;;;3.73;;
77531;SDS011;70100;44.486;0.266;2023-07-24T00:31:37;6.80;;;4.10;;
77531;SDS011;70100;44.486;0.266;2023-07-24T00:37:08;6.97;;;3.57;;
77531;SDS011;70100;44.486;0.266;2023-07-24T00:42:40;6.70;;;4.33;;
77531;SDS011;70100;44.486;0.266;2023-07-24T00:48:13;6.50;;;3.67;;
77531;SDS011;70100;44.486;0.266;2023-07-24T00:53:48;5.80;;;3.27;;
77531;SDS011;70100;44.486;0.266;2023-07-24T00:59:20;5.57;;;4.13;;
77531;SDS011;70100;44.486;0.266;2023-07-24T01:04:52;4.60;;;3.67;;
77531;SDS011;70100;44.486;0.266;2023-07-24T01:10:24;7.83;;;4.20;;
77531;SDS011;70100;44.486;0.266;2023-07-24T01:15:59;7.20;;;3.47;;
77531;SDS011;70100;44.486;0.266;2023-07-24T01:21:32;6.03;;;3.77;;
77531;SDS011;70100;44.486;0.266;2023-07-24T01:27:03;4.27;;;3.20;;
77531;SDS011;70100;44.486;0.266;2023-07-24T01:32:34;10.20;;;4.17;;
77531;SDS011;70100;44.486;0.266;2023-07-24T01:38:07;7.00;;;4.87;;
77531;SDS011;70100;44.486;0.266;2023-07-24T01:43:40;6.07;;;3.60;;
77531;SDS011;70100;44.486;0.266;2023-07-24T01:49:12;5.57;;;3.53;;
77531;SDS011;70100;44.486;0.266;2023-07-24T01:54:45;6.33;;;4.20;;
77531;SDS011;70100;44.486;0.266;2023-07-24T02:00:17;5.93;;;4.10;;
77531;SDS011;70100;44.486;0.266;2023-07-24T02:05:51;7.23;;;3.87;;
77531;SDS011;70100;44.486;0.266;2023-07-24T02:11:23;6.10;;;3.70;;
77531;SDS011;70100;44.486;0.266;2023-07-24T02:16:56;8.37;;;3.80;;
77531;SDS011;70100;44.486;0.266;2023-07-24T02:22:28;5.93;;;2.87;;
77531;SDS011;70100;44.486;0.266;2023-07-24T02:28:01;6.87;;;3.47;;
77531;SDS011;70100;44.486;0.266;2023-07-24T02:33:34;4.83;;;3.40;;
77531;SDS011;70100;44.486;0.266;2023-07-24T02:39:07;7.17;;;3.97;;
77531;SDS011;70100;44.486;0.266;2023-07-24T02:44:40;9.30;;;3.63;;
77531;SDS011;70100;44.486;0.266;2023-07-24T02:50:11;5.80;;;4.00;;
77531;SDS011;70100;44.486;0.266;2023-07-24T02:55:44;8.57;;;4.53;;
77531;SDS011;70100;44.486;0.266;2023-07-24T03:01:17;6.20;;;3.93;;
77531;SDS011;70100;44.486;0.266;2023-07-24T03:12:22;8.03;;;4.17;;
77531;SDS011;70100;44.486;0.266;2023-07-24T03:17:55;10.43;;;4.90;;
77531;SDS011;70100;44.486;0.266;2023-07-24T03:23:28;5.63;;;3.50;;
77531;SDS011;70100;44.486;0.266;2023-07-24T03:29:00;-1.00;;;-1.00;;
77531;SDS011;70100;44.486;0.266;2023-07-24T03:34:32;7.83;;;4.07;;
77531;SDS011;70100;44.486;0.266;2023-07-24T03:40:05;6.67;;;3.47;;
77531;SDS011;70100;44.486;0.266;2023-07-24T03:45:38;6.93;;;3.90;;
77531;SDS011;70100;44.486;0.266;2023-07-24T03:51:11;9.63;;;5.20;;
77531;SDS011;70100;44.486;0.266;2023-07-24T03:56:44;9.23;;;4.57;;
77531;SDS011;70100;44.486;0.266;2023-07-24T04:07:49;6.13;;;3.27;;
77531;SDS011;70100;44.486;0.266;2023-07-24T04:13:21;7.80;;;3.73;;
77531;SDS011;70100;44.486;0.266;2023-07-24T04:18:54;6.63;;;4.07;;
77531;SDS011;70100;44.486;0.266;2023-07-24T04:24:26;7.53;;;4.00;;
77531;SDS011;70100;44.486;0.266;2023-07-24T04:29:59;6.03;;;4.57;;
77531;SDS011;70100;44.486;0.266;2023-07-24T04:35:33;7.80;;;4.33;;
77531;SDS011;70100;44.486;0.266;2023-07-24T04:52:10;9.50;;;4.73;;
77531;SDS011;70100;44.486;0.266;2023-07-24T04:57:43;6.33;;;4.13;;
77531;SDS011;70100;44.486;0.266;2023-07-24T05:03:17;-1.00;;;-1.00;;
77531;SDS011;70100;44.486;0.266;2023-07-24T05:08:48;6.20;;;4.07;;
77531;SDS011;70100;44.486;0.266;2023-07-24T05:14:21;6.90;;;4.40;;
77531;SDS011;70100;44.486;0.266;2023-07-24T05:19:53;9.67;;;4.30;;
77531;SDS011;70100;44.486;0.266;2023-07-24T05:25:26;9.80;;;4.30;;
77531;SDS011;70100;44.486;0.266;2023-07-24T05:31:00;7.93;;;4.50;;
77531;SDS011;70100;44.486;0.266;2023-07-24T05:36:32;5.83;;;3.53;;
77531;SDS011;70100;44.486;0.266;2023-07-24T05:42:04;7.57;;;4.17;;
77531;SDS011;70100;44.486;0.266;2023-07-24T05:47:37;8.87;;;4.80;;
77531;SDS011;70100;44.486;0.266;2023-07-24T05:53:10;7.27;;;5.27;;
77531;SDS011;70100;44.486;0.266;2023-07-24T05:58:43;5.83;;;4.40;;
77531;SDS011;70100;44.486;0.266;2023-07-24T06:04:16;8.57;;;4.47;;
77531;SDS011;70100;44.486;0.266;2023-07-24T06:09:49;8.53;;;4.17;;
77531;SDS011;70100;44.486;0.266;2023-07-24T06:15:21;6.87;;;4.87;;
77531;SDS011;70100;44.486;0.266;2023-07-24T06:20:55;6.77;;;5.00;;
77531;SDS011;70100;44.486;0.266;2023-07-24T06:26:29;6.53;;;3.87;;
77531;SDS011;70100;44.486;0.266;2023-07-24T06:32:03;6.03;;;4.83;;
77531;SDS011;70100;44.486;0.266;2023-07-24T06:37:33;6.93;;;4.80;;
77531;SDS011;70100;44.486;0.266;2023-07-24T06:43:06;6.93;;;4.90;;
77531;SDS011;70100;44.486;0.266;2023-07-24T06:54:12;7.17;;;4.47;;
77531;SDS011;70100;44.486;0.266;2023-07-24T06:59:46;8.40;;;5.00;;
77531;SDS011;70100;44.486;0.266;2023-07-24T07:05:17;8.67;;;4.20;;
77531;SDS011;70100;44.486;0.266;2023-07-24T07:10:54;7.97;;;3.80;;
77531;SDS011;70100;44.486;0.266;2023-07-24T07:16:21;7.73;;;3.60;;
77531;SDS011;70100;44.486;0.266;2023-07-24T07:21:55;6.93;;;3.77;;
77531;SDS011;70100;44.486;0.266;2023-07-24T07:27:27;5.40;;;3.87;;
77531;SDS011;70100;44.486;0.266;2023-07-24T07:33:00;8.47;;;4.27;;
77531;SDS011;70100;44.486;0.266;2023-07-24T07:38:32;4.03;;;2.80;;
77531;SDS011;70100;44.486;0.266;2023-07-24T07:44:04;6.20;;;3.80;;
77531;SDS011;70100;44.486;0.266;2023-07-24T07:49:37;5.60;;;3.70;;
77531;SDS011;70100;44.486;0.266;2023-07-24T07:55:11;5.13;;;2.93;;
77531;SDS011;70100;44.486;0.266;2023-07-24T08:00:44;3.20;;;1.83;;
77531;SDS011;70100;44.486;0.266;2023-07-24T08:06:16;3.10;;;2.17;;
77531;SDS011;70100;44.486;0.266;2023-07-24T08:11:48;4.67;;;2.23;;
77531;SDS011;70100;44.486;0.266;2023-07-24T08:17:21;3.93;;;2.27;;
77531;SDS011;70100;44.486;0.266;2023-07-24T08:22:52;4.37;;;3.03;;
77531;SDS011;70100;44.486;0.266;2023-07-24T08:28:25;4.47;;;3.07;;
77531;SDS011;70100;44.486;0.266;2023-07-24T08:33:57;3.87;;;2.20;;
77531;SDS011;70100;44.486;0.266;2023-07-24T08:39:30;4.20;;;3.27;;
77531;SDS011;70100;44.486;0.266;2023-07-24T08:45:01;5.80;;;2.90;;
77531;SDS011;70100;44.486;0.266;2023-07-24T08:50:35;3.27;;;2.57;;
77531;SDS011;70100;44.486;0.266;2023-07-24T08:56:08;5.10;;;2.30;;
77531;SDS011;70100;44.486;0.266;2023-07-24T09:01:40;2.47;;;1.97;;
77531;SDS011;70100;44.486;0.266;2023-07-24T09:07:13;6.80;;;2.33;;
77531;SDS011;70100;44.486;0.266;2023-07-24T09:12:45;2.30;;;1.10;;
77531;SDS011;70100;44.486;0.266;2023-07-24T09:18:18;2.13;;;1.70;;
77531;SDS011;70100;44.486;0.266;2023-07-24T09:23:51;2.07;;;1.60;;
77531;SDS011;70100;44.486;0.266;2023-07-24T09:29:29;6.60;;;2.67;;
77531;SDS011;70100;44.486;0.266;2023-07-24T09:34:54;5.07;;;3.03;;
77531;SDS011;70100;44.486;0.266;2023-07-24T09:40:27;4.60;;;3.23;;
77531;SDS011;70100;44.486;0.266;2023-07-24T09:45:59;3.97;;;2.27;;
77531;SDS011;70100;44.486;0.266;2023-07-24T09:51:33;6.03;;;2.07;;
77531;SDS011;70100;44.486;0.266;2023-07-24T09:57:05;7.50;;;2.53;;
77531;SDS011;70100;44.486;0.266;2023-07-24T10:02:36;3.27;;;1.60;;
77531;SDS011;70100;44.486;0.266;2023-07-24T10:08:09;3.10;;;1.60;;
77531;SDS011;70100;44.486;0.266;2023-07-24T10:13:41;2.77;;;1.50;;
77531;SDS011;70100;44.486;0.266;2023-07-24T10:19:15;1.37;;;0.80;;
77531;SDS011;70100;44.486;0.266;2023-07-24T10:24:48;2.90;;;1.23;;
77531;SDS011;70100;44.486;0.266;2023-07-24T10:30:27;1.30;;;1.20;;
77531;SDS011;70100;44.486;0.266;2023-07-24T10:35:54;2.33;;;1.47;;
77531;SDS011;70100;44.486;0.266;2023-07-24T10:41:34;1.00;;;0.70;;
77531;SDS011;70100;44.486;0.266;2023-07-24T10:47:01;1.30;;;1.10;;
77531;SDS011;70100;44.486;0.266;2023-07-24T10:52:34;2.63;;;0.80;;
77531;SDS011;70100;44.486;0.266;2023-07-24T10:58:07;1.10;;;0.80;;
77531;SDS011;70100;44.486;0.266;2023-07-24T11:03:40;3.47;;;1.07;;
77531;SDS011;70100;44.486;0.266;2023-07-24T11:09:11;1.60;;;0.90;;
77531;SDS011;70100;44.486;0.266;2023-07-24T11:14:46;2.93;;;1.13;;
77531;SDS011;70100;44.486;0.266;2023-07-24T11:20:18;2.43;;;1.33;;
77531;SDS011;70100;44.486;0.266;2023-07-24T11:25:50;2.10;;;1.50;;
77531;SDS011;70100;44.486;0.266;2023-07-24T11:31:24;2.57;;;1.30;;
77531;SDS011;70100;44.486;0.266;2023-07-24T11:36:56;3.23;;;1.40;;
77531;SDS011;70100;44.486;0.266;2023-07-24T11:42:30;2.50;;;1.43;;
77531;SDS011;70100;44.486;0.266;2023-07-24T11:48:02;3.77;;;1.73;;
77531;SDS011;70100;44.486;0.266;2023-07-24T11:53:34;5.03;;;1.70;;
77531;SDS011;70100;44.486;0.266;2023-07-24T11:59:11;5.27;;;1.50;;
77531;SDS011;70100;44.486;0.266;2023-07-24T12:04:40;5.67;;;2.07;;
77531;SDS011;70100;44.486;0.266;2023-07-24T12:10:13;6.73;;;1.73;;
77531;SDS011;70100;44.486;0.266;2023-07-24T12:15:44;4.37;;;1.70;;
77531;SDS011;70100;44.486;0.266;2023-07-24T12:21:16;6.50;;;3.20;;
77531;SDS011;70100;44.486;0.266;2023-07-24T12:26:48;4.30;;;2.17;;
77531;SDS011;70100;44.486;0.266;2023-07-24T12:32:23;6.57;;;1.77;;
77531;SDS011;70100;44.486;0.266;2023-07-24T12:37:54;4.60;;;1.50;;
77531;SDS011;70100;44.486;0.266;2023-07-24T12:43:28;4.37;;;2.00;;
77531;SDS011;70100;44.486;0.266;2023-07-24T12:49:00;5.40;;;2.27;;
77531;SDS011;70100;44.486;0.266;2023-07-24T12:54:34;3.50;;;1.47;;
77531;SDS011;70100;44.486;0.266;2023-07-24T13:00:06;3.77;;;2.30;;
77531;SDS011;70100;44.486;0.266;2023-07-24T13:05:39;9.37;;;1.97;;
77531;SDS011;70100;44.486;0.266;2023-07-24T13:11:11;5.40;;;2.37;;
77531;SDS011;70100;44.486;0.266;2023-07-24T13:16:44;4.07;;;2.77;;
77531;SDS011;70100;44.486;0.266;2023-07-24T13:22:17;6.33;;;2.47;;
77531;SDS011;70100;44.486;0.266;2023-07-24T13:27:50;5.87;;;2.13;;
77531;SDS011;70100;44.486;0.266;2023-07-24T13:33:23;4.70;;;1.87;;
77531;SDS011;70100;44.486;0.266;2023-07-24T13:38:56;5.03;;;1.50;;
77531;SDS011;70100;44.486;0.266;2023-07-24T13:44:28;5.03;;;1.73;;
77531;SDS011;70100;44.486;0.266;2023-07-24T13:50:03;4.43;;;1.70;;
77531;SDS011;70100;44.486;0.266;2023-07-24T13:55:34;3.13;;;1.37;;
77531;SDS011;70100;44.486;0.266;2023-07-24T14:01:08;5.07;;;1.30;;
77531;SDS011;70100;44.486;0.266;2023-07-24T14:06:41;5.93;;;1.93;;
77531;SDS011;70100;44.486;0.266;2023-07-24T14:12:12;5.30;;;2.13;;
77531;SDS011;70100;44.486;0.266;2023-07-24T14:17:44;3.53;;;2.30;;
77531;SDS011;70100;44.486;0.266;2023-07-24T14:23:16;8.23;;;2.00;;
77531;SDS011;70100;44.486;0.266;2023-07-24T14:28:48;2.53;;;1.20;;
77531;SDS011;70100;44.486;0.266;2023-07-24T14:34:20;2.00;;;1.47;;
77531;SDS011;70100;44.486;0.266;2023-07-24T14:39:53;5.23;;;1.47;;
77531;SDS011;70100;44.486;0.266;2023-07-24T14:45:27;2.50;;;1.40;;
77531;SDS011;70100;44.486;0.266;2023-07-24T14:56:31;2.10;;;1.20;;
77531;SDS011;70100;44.486;0.266;2023-07-24T15:02:04;4.97;;;1.10;;
77531;SDS011;70100;44.486;0.266;2023-07-24T15:07:36;4.13;;;1.50;;
77531;SDS011;70100;44.486;0.266;2023-07-24T15:13:09;3.47;;;1.47;;
77531;SDS011;70100;44.486;0.266;2023-07-24T15:18:41;3.13;;;1.43;;
77531;SDS011;70100;44.486;0.266;2023-07-24T15:24:13;4.00;;;1.33;;
77531;SDS011;70100;44.486;0.266;2023-07-24T15:29:45;3.60;;;1.50;;
77531;SDS011;70100;44.486;0.266;2023-07-24T15:35:17;2.50;;;1.30;;
77531;SDS011;70100;44.486;0.266;2023-07-24T15:40:50;1.33;;;1.23;;
77531;SDS011;70100;44.486;0.266;2023-07-24T15:46:23;1.77;;;1.33;;
77531;SDS011;70100;44.486;0.266;2023-07-24T15:51:55;5.83;;;1.20;;
77531;SDS011;70100;44.486;0.266;2023-07-24T15:57:27;4.53;;;1.47;;
77531;SDS011;70100;44.486;0.266;2023-07-24T16:03:00;3.50;;;1.83;;
77531;SDS011;70100;44.486;0.266;2023-07-24T16:08:32;2.63;;;1.37;;
77531;SDS011;70100;44.486;0.266;2023-07-24T16:14:04;5.53;;;1.57;;
77531;SDS011;70100;44.486;0.266;2023-07-24T16:19:37;5.40;;;1.47;;
77531;SDS011;70100;44.486;0.266;2023-07-24T16:25:08;6.03;;;1.70;;
77531;SDS011;70100;44.486;0.266;2023-07-24T16:30:41;5.93;;;1.60;;
77531;SDS011;70100;44.486;0.266;2023-07-24T16:36:12;2.23;;;1.20;;
77531;SDS011;70100;44.486;0.266;2023-07-24T16:41:44;3.53;;;1.20;;
77531;SDS011;70100;44.486;0.266;2023-07-24T16:47:17;3.67;;;1.20;;
77531;SDS011;70100;44.486;0.266;2023-07-24T16:52:49;2.90;;;1.20;;
77531;SDS011;70100;44.486;0.266;2023-07-24T16:58:23;4.53;;;1.73;;
77531;SDS011;70100;44.486;0.266;2023-07-24T17:03:56;4.87;;;1.70;;
77531;SDS011;70100;44.486;0.266;2023-07-24T17:09:29;5.17;;;1.93;;
77531;SDS011;70100;44.486;0.266;2023-07-24T17:15:03;3.07;;;1.20;;
77531;SDS011;70100;44.486;0.266;2023-07-24T17:20:34;2.93;;;1.40;;
77531;SDS011;70100;44.486;0.266;2023-07-24T17:26:06;4.50;;;1.20;;
77531;SDS011;70100;44.486;0.266;2023-07-24T17:31:40;4.30;;;1.37;;
77531;SDS011;70100;44.486;0.266;2023-07-24T17:37:12;4.87;;;1.20;;
77531;SDS011;70100;44.486;0.266;2023-07-24T17:42:45;4.07;;;1.50;;
77531;SDS011;70100;44.486;0.266;2023-07-24T17:48:17;5.33;;;1.37;;
77531;SDS011;70100;44.486;0.266;2023-07-24T17:53:50;4.17;;;1.60;;
77531;SDS011;70100;44.486;0.266;2023-07-24T17:59:23;2.93;;;2.60;;
77531;SDS011;70100;44.486;0.266;2023-07-24T18:04:56;4.43;;;1.60;;
77531;SDS011;70100;44.486;0.266;2023-07-24T18:10:29;4.57;;;1.40;;
77531;SDS011;70100;44.486;0.266;2023-07-24T18:16:01;2.70;;;1.13;;
77531;SDS011;70100;44.486;0.266;2023-07-24T18:21:34;4.33;;;1.20;;
77531;SDS011;70100;44.486;0.266;2023-07-24T18:27:07;2.10;;;1.20;;
77531;SDS011;70100;44.486;0.266;2023-07-24T18:32:40;2.73;;;1.40;;
77531;SDS011;70100;44.486;0.266;2023-07-24T18:38:13;2.57;;;1.10;;
77531;SDS011;70100;44.486;0.266;2023-07-24T18:43:46;2.87;;;1.13;;
77531;SDS011;70100;44.486;0.266;2023-07-24T18:49:18;5.63;;;1.63;;
77531;SDS011;70100;44.486;0.266;2023-07-24T18:54:51;3.40;;;1.63;;
77531;SDS011;70100;44.486;0.266;2023-07-24T19:00:24;3.67;;;1.40;;
77531;SDS011;70100;44.486;0.266;2023-07-24T19:05:57;3.53;;;2.10;;
77531;SDS011;70100;44.486;0.266;2023-07-24T19:11:29;3.77;;;1.30;;
77531;SDS011;70100;44.486;0.266;2023-07-24T19:17:01;3.27;;;1.50;;
77531;SDS011;70100;44.486;0.266;2023-07-24T19:22:33;4.23;;;1.03;;
77531;SDS011;70100;44.486;0.266;2023-07-24T19:28:06;3.87;;;1.53;;
77531;SDS011;70100;44.486;0.266;2023-07-24T19:33:38;1.83;;;1.00;;
77531;SDS011;70100;44.486;0.266;2023-07-24T19:39:10;2.23;;;1.03;;
77531;SDS011;70100;44.486;0.266;2023-07-24T19:44:43;2.57;;;0.97;;
77531;SDS011;70100;44.486;0.266;2023-07-24T19:50:16;3.87;;;0.80;;
77531;SDS011;70100;44.486;0.266;2023-07-24T19:55:48;2.53;;;1.53;;
77531;SDS011;70100;44.486;0.266;2023-07-24T20:01:21;2.00;;;0.70;;
77531;SDS011;70100;44.486;0.266;2023-07-24T20:06:53;-1.00;;;-1.00;;
77531;SDS011;70100;44.486;0.266;2023-07-24T20:12:26;3.40;;;1.10;;
77531;SDS011;70100;44.486;0.266;2023-07-24T20:17:59;2.57;;;1.00;;
77531;SDS011;70100;44.486;0.266;2023-07-24T20:23:32;3.73;;;1.17;;
77531;SDS011;70100;44.486;0.266;2023-07-24T20:29:05;1.97;;;1.17;;
77531;SDS011;70100;44.486;0.266;2023-07-24T20:34:38;3.23;;;0.80;;
77531;SDS011;70100;44.486;0.266;2023-07-24T20:45:44;4.30;;;1.53;;
77531;SDS011;70100;44.486;0.266;2023-07-24T20:51:17;3.10;;;1.63;;
77531;SDS011;70100;44.486;0.266;2023-07-24T20:56:48;7.20;;;1.37;;
77531;SDS011;70100;44.486;0.266;2023-07-24T21:02:20;4.33;;;1.63;;
77531;SDS011;70100;44.486;0.266;2023-07-24T21:07:55;5.03;;;1.20;;
77531;SDS011;70100;44.486;0.266;2023-07-24T21:18:59;2.20;;;1.17;;
77531;SDS011;70100;44.486;0.266;2023-07-24T21:24:31;7.23;;;2.03;;
77531;SDS011;70100;44.486;0.266;2023-07-24T21:30:05;7.23;;;1.90;;
77531;SDS011;70100;44.486;0.266;2023-07-24T21:35:37;6.40;;;1.23;;
77531;SDS011;70100;44.486;0.266;2023-07-24T21:41:11;5.60;;;2.10;;
77531;SDS011;70100;44.486;0.266;2023-07-24T21:46:42;4.30;;;2.43;;
77531;SDS011;70100;44.486;0.266;2023-07-24T21:52:17;5.70;;;1.37;;
77531;SDS011;70100;44.486;0.266;2023-07-24T21:57:49;10.10;;;1.67;;
77531;SDS011;70100;44.486;0.266;2023-07-24T22:08:53;4.77;;;1.90;;
77531;SDS011;70100;44.486;0.266;2023-07-24T22:14:25;4.53;;;1.30;;
77531;SDS011;70100;44.486;0.266;2023-07-24T22:19:58;3.77;;;1.67;;
77531;SDS011;70100;44.486;0.266;2023-07-24T22:31:06;5.97;;;1.57;;
77531;SDS011;70100;44.486;0.266;2023-07-24T22:36:35;3.23;;;2.13;;
77531;SDS011;70100;44.486;0.266;2023-07-24T22:42:07;-1.00;;;-1.00;;
77531;SDS011;70100;44.486;0.266;2023-07-24T22:47:38;6.30;;;2.47;;
77531;SDS011;70100;44.486;0.266;2023-07-24T22:53:12;9.30;;;1.93;;
77531;SDS011;70100;44.486;0.266;2023-07-24T23:04:18;5.10;;;1.80;;
77531;SDS011;70100;44.486;0.266;2023-07-24T23:09:50;-1.00;;;-1.00;;
77531;SDS011;70100;44.486;0.266;2023-07-24T23:15:23;8.77;;;2.10;;
77531;SDS011;70100;44.486;0.266;2023-07-24T23:21:00;5.53;;;1.37;;
77531;SDS011;70100;44.486;0.266;2023-07-24T23:31:59;10.37;;;2.07;;
77531;SDS011;70100;44.486;0.266;2023-07-24T23:37:33;8.30;;;2.37;;
77531;SDS011;70100;44.486;0.266;2023-07-24T23:43:05;-1.00;;;-1.00;;
77531;SDS011;70100;44.486;0.266;2023-07-24T23:48:37;6.63;;;1.90;;
77531;SDS011;70100;44.486;0.266;2023-07-24T23:59:41;3.60;;;2.13;;
